createdAt,value
2022-08-26T17:31:40.928Z,25.81
2022-08-26T17:37:05.417Z,25.66
2022-08-26T17:39:33.424Z,25.60
2022-08-26T17:42:01.658Z,25.46
2022-08-26T17:44:30.150Z,25.42
2022-08-26T17:46:58.905Z,25.61
2022-08-26T17:49:33.304Z,25.51
2022-08-26T17:52:08.467Z,25.66
2022-08-26T17:54:43.706Z,25.77
2022-08-26T17:57:13.818Z,25.81
2022-08-26T17:59:51.048Z,25.85
2022-08-26T18:02:23.852Z,26.17
2022-08-26T18:04:52.714Z,26.31
2022-08-26T18:07:20.858Z,26.34
2022-08-26T18:09:49.479Z,26.30
2022-08-26T18:12:17.993Z,26.37
2022-08-26T18:14:46.583Z,26.40
2022-08-26T18:17:16.272Z,26.74
2022-08-26T18:19:48.383Z,27.36
2022-08-26T18:22:17.204Z,27.54
2022-08-26T18:24:57.377Z,27.88
2022-08-26T18:27:28.274Z,28.31
2022-08-26T18:29:57.542Z,28.44
2022-08-26T18:32:25.754Z,28.54
2022-08-26T18:35:21.358Z,28.85
2022-08-26T18:37:51.441Z,29.33
2022-08-26T18:40:21.079Z,29.67
2022-08-26T18:42:54.219Z,29.88
2022-08-26T18:45:22.840Z,29.78
2022-08-26T18:47:51.442Z,29.88
2022-08-26T18:50:19.739Z,30.09
2022-08-26T18:52:48.033Z,29.90
2022-08-26T18:55:16.800Z,30.22
2022-08-26T18:57:45.004Z,30.36
2022-08-26T19:00:14.093Z,30.55
2022-08-26T19:02:42.124Z,31.04
2022-08-26T19:05:15.522Z,31.36
2022-08-26T19:07:44.015Z,31.80
2022-08-26T19:10:17.314Z,31.98
2022-08-26T19:12:46.455Z,32.36
2022-08-26T19:15:20.010Z,32.61
2022-08-26T19:17:48.466Z,32.71
2022-08-26T19:20:16.603Z,32.73
2022-08-26T19:22:45.899Z,33.42
2022-08-26T19:25:14.229Z,33.48
2022-08-26T19:27:42.084Z,33.78
2022-08-26T19:30:10.925Z,34.07
2022-08-26T19:32:39.780Z,33.92
2022-08-26T19:35:08.454Z,33.82
2022-08-26T19:37:36.524Z,34.04
2022-08-26T19:40:08.165Z,34.45
2022-08-26T19:42:45.476Z,34.76
2022-08-26T19:45:25.056Z,34.67
2022-08-26T19:48:12.010Z,34.76
2022-08-26T19:50:40.303Z,34.76
2022-08-26T19:53:10.172Z,34.88
2022-08-26T19:55:39.349Z,34.69
2022-08-26T19:58:27.625Z,34.98
2022-08-26T20:00:56.169Z,35.41
2022-08-26T20:03:24.451Z,35.87
2022-08-26T20:05:52.395Z,36.09
2022-08-26T20:08:22.242Z,36.12
2022-08-26T20:10:51.477Z,35.97
2022-08-26T20:13:21.123Z,36.19
2022-08-26T20:15:49.285Z,36.51
2022-08-26T20:18:36.813Z,36.26
2022-08-26T20:21:25.967Z,36.17
2022-08-26T20:24:09.972Z,36.51
2022-08-26T20:26:40.039Z,36.61
2022-08-26T20:29:10.390Z,36.65
2022-08-26T20:31:39.629Z,36.48
2022-08-26T20:34:07.958Z,36.70
2022-08-26T20:36:39.579Z,36.96
2022-08-26T20:39:10.724Z,37.42
2022-08-26T20:41:40.035Z,37.21
2022-08-26T20:44:09.445Z,37.01
2022-08-26T20:46:38.553Z,37.17
2022-08-26T20:49:07.617Z,37.50
2022-08-26T20:51:37.179Z,37.30
2022-08-26T20:54:07.146Z,37.18
2022-08-26T20:56:36.652Z,37.32
2022-08-26T20:59:06.802Z,37.38
2022-08-26T21:01:39.876Z,37.61
2022-08-26T21:04:15.323Z,38.23
2022-08-26T21:06:45.159Z,38.21
2022-08-26T21:09:23.342Z,38.06
2022-08-26T21:11:52.498Z,38.02
2022-08-26T21:14:22.842Z,38.00
2022-08-26T21:16:54.252Z,38.36
2022-08-26T21:19:22.791Z,38.03
2022-08-26T21:21:50.956Z,37.77
2022-08-26T21:24:19.525Z,37.73
2022-08-26T21:26:48.385Z,37.63
2022-08-26T21:29:16.488Z,37.39
2022-08-26T21:31:46.447Z,37.47
2022-08-26T21:34:18.437Z,37.50
2022-08-26T21:36:49.692Z,37.70
2022-08-26T21:39:18.244Z,37.60
2022-08-26T21:41:47.403Z,37.62
2022-08-26T21:44:17.739Z,37.37
2022-08-26T21:46:47.098Z,37.05
2022-08-26T21:49:17.485Z,36.64
2022-08-26T21:51:48.848Z,36.47
2022-08-26T21:54:18.275Z,36.53
2022-08-26T21:56:48.549Z,36.65
2022-08-26T21:59:19.571Z,36.65
2022-08-26T22:01:48.953Z,36.57
2022-08-26T22:04:18.202Z,36.22
2022-08-26T22:06:53.908Z,36.37
2022-08-26T22:09:26.828Z,36.29
2022-08-26T22:11:57.034Z,35.83
2022-08-26T22:14:30.785Z,35.41
2022-08-26T22:17:33.367Z,35.49
2022-08-26T22:20:01.975Z,35.54
2022-08-26T22:22:32.139Z,35.57
2022-08-26T22:25:00.169Z,35.16
2022-08-26T22:27:28.250Z,34.65
2022-08-26T22:29:56.108Z,34.91
2022-08-26T22:32:23.952Z,35.22
2022-08-26T22:34:51.839Z,35.31
2022-08-26T22:37:20.545Z,35.77
2022-08-26T22:39:48.708Z,35.67
2022-08-26T22:42:16.920Z,35.71
2022-08-26T22:44:45.180Z,36.06
2022-08-26T22:47:13.145Z,36.15
2022-08-26T22:49:41.679Z,36.52
2022-08-26T22:52:09.813Z,36.45
2022-08-26T22:54:37.887Z,36.40
2022-08-26T22:57:06.145Z,36.39
2022-08-26T22:59:34.537Z,36.43
2022-08-26T23:02:02.469Z,36.60
2022-08-26T23:04:30.579Z,36.56
2022-08-26T23:06:58.870Z,36.60
2022-08-26T23:09:26.682Z,36.57
2022-08-26T23:11:56.518Z,36.38
2022-08-26T23:14:25.773Z,36.42
2022-08-26T23:16:53.735Z,36.51
2022-08-26T23:19:22.801Z,36.42
2022-08-26T23:21:51.171Z,36.34
2022-08-26T23:24:19.389Z,36.67
2022-08-26T23:26:48.519Z,36.69
2022-08-26T23:29:16.832Z,36.65
2022-08-26T23:31:45.558Z,36.49
2022-08-26T23:34:32.339Z,36.82
2022-08-26T23:37:01.081Z,37.14
2022-08-26T23:39:32.626Z,37.90
2022-08-26T23:42:02.991Z,38.16
2022-08-26T23:44:31.389Z,38.34
2022-08-26T23:47:00.145Z,38.29
2022-08-26T23:49:29.151Z,38.54
2022-08-26T23:52:15.977Z,38.49
2022-08-26T23:54:45.404Z,38.80
2022-08-26T23:57:13.112Z,38.75
2022-08-26T23:59:41.180Z,38.98
